sensor_id;sensor_type;location;lat;lon;timestamp;pressure;altitude;pressure_sealevel;temperature;humidity
42285;BME280;27942;47.510;18.966;2022-12-07T00:00:38;-15216.81;;;0.65;100.00
42285;BME280;27942;47.510;18.966;2022-12-07T00:03:04;-15211.69;;;0.48;100.00
42285;BME280;27942;47.510;18.966;2022-12-07T00:05:29;-15213.09;;;0.53;100.00
42285;BME280;27942;47.510;18.966;2022-12-07T00:07:54;-15211.38;;;0.47;100.00
42285;BME280;27942;47.510;18.966;2022-12-07T00:10:19;-15210.75;;;0.45;100.00
42285;BME280;27942;47.510;18.966;2022-12-07T00:12:45;-15207.66;;;0.35;100.00
42285;BME280;27942;47.510;18.966;2022-12-07T00:15:10;-15201.00;;;0.13;100.00
42285;BME280;27942;47.510;18.966;2022-12-07T00:17:35;-15200.38;;;0.11;100.00
42285;BME280;27942;47.510;18.966;2022-12-07T00:20:01;-15197.72;;;0.02;100.00
42285;BME280;27942;47.510;18.966;2022-12-07T00:22:26;-15196.03;;;-0.04;100.00
42285;BME280;27942;47.510;18.966;2022-12-07T00:24:51;-15193.84;;;-0.11;100.00
42285;BME280;27942;47.510;18.966;2022-12-07T00:27:17;-15189.81;;;-0.24;100.00
42285;BME280;27942;47.510;18.966;2022-12-07T00:29:42;-15190.59;;;-0.21;100.00
42285;BME280;27942;47.510;18.966;2022-12-07T00:32:07;-15190.28;;;-0.22;100.00
42285;BME280;27942;47.510;18.966;2022-12-07T00:34:33;-15189.53;;;-0.25;100.00
42285;BME280;27942;47.510;18.966;2022-12-07T00:36:58;-15189.22;;;-0.26;100.00
42285;BME280;27942;47.510;18.966;2022-12-07T00:39:23;-15187.19;;;-0.33;100.00
42285;BME280;27942;47.510;18.966;2022-12-07T00:41:48;-15185.97;;;-0.37;100.00
42285;BME280;27942;47.510;18.966;2022-12-07T00:44:14;-15186.88;;;-0.34;100.00
42285;BME280;27942;47.510;18.966;2022-12-07T00:46:39;-15184.72;;;-0.41;100.00
42285;BME280;27942;47.510;18.966;2022-12-07T00:49:05;-15186.13;;;-0.36;100.00
42285;BME280;27942;47.510;18.966;2022-12-07T00:51:30;-15183.94;;;-0.43;100.00
42285;BME280;27942;47.510;18.966;2022-12-07T00:53:55;-15184.56;;;-0.41;100.00
42285;BME280;27942;47.510;18.966;2022-12-07T00:56:23;-15183.31;;;-0.45;100.00
42285;BME280;27942;47.510;18.966;2022-12-07T00:58:57;-15181.94;;;-0.50;100.00
42285;BME280;27942;47.510;18.966;2022-12-07T01:01:24;-15184.25;;;-0.42;100.00
42285;BME280;27942;47.510;18.966;2022-12-07T01:03:50;-15181.78;;;-0.50;100.00
42285;BME280;27942;47.510;18.966;2022-12-07T01:06:17;-15183.63;;;-0.44;100.00
42285;BME280;27942;47.510;18.966;2022-12-07T01:08:43;-15183.31;;;-0.45;100.00
42285;BME280;27942;47.510;18.966;2022-12-07T01:11:12;-15183.00;;;-0.46;100.00
42285;BME280;27942;47.510;18.966;2022-12-07T01:13:38;-15179.91;;;-0.57;100.00
42285;BME280;27942;47.510;18.966;2022-12-07T01:16:05;-15180.06;;;-0.56;100.00
42285;BME280;27942;47.510;18.966;2022-12-07T01:18:33;-15182.69;;;-0.47;100.00
42285;BME280;27942;47.510;18.966;2022-12-07T01:20:59;-15183.00;;;-0.46;100.00
42285;BME280;27942;47.510;18.966;2022-12-07T01:23:25;-15181.31;;;-0.52;100.00
42285;BME280;27942;47.510;18.966;2022-12-07T01:25:58;-15182.09;;;-0.49;100.00
42285;BME280;27942;47.510;18.966;2022-12-07T01:28:24;-15182.09;;;-0.49;100.00
42285;BME280;27942;47.510;18.966;2022-12-07T01:31:05;-15184.41;;;-0.42;100.00
42285;BME280;27942;47.510;18.966;2022-12-07T01:33:33;-15186.13;;;-0.36;100.00
42285;BME280;27942;47.510;18.966;2022-12-07T01:36:13;-15183.63;;;-0.44;100.00
42285;BME280;27942;47.510;18.966;2022-12-07T01:38:39;-15184.25;;;-0.42;100.00
42285;BME280;27942;47.510;18.966;2022-12-07T01:41:05;-15185.50;;;-0.38;100.00
42285;BME280;27942;47.510;18.966;2022-12-07T01:43:33;-15190.59;;;-0.21;100.00
42285;BME280;27942;47.510;18.966;2022-12-07T01:45:59;-15190.13;;;-0.23;100.00
42285;BME280;27942;47.510;18.966;2022-12-07T01:48:40;-15189.53;;;-0.25;100.00
42285;BME280;27942;47.510;18.966;2022-12-07T01:51:11;-15194.78;;;-0.08;100.00
42285;BME280;27942;47.510;18.966;2022-12-07T01:53:43;-15205.31;;;0.27;100.00
42285;BME280;27942;47.510;18.966;2022-12-07T01:56:15;-15210.44;;;0.44;100.00
42285;BME280;27942;47.510;18.966;2022-12-07T01:58:44;-15219.59;;;0.74;100.00
42285;BME280;27942;47.510;18.966;2022-12-07T02:01:09;-15220.84;;;0.78;100.00
42285;BME280;27942;47.510;18.966;2022-12-07T02:03:41;-15222.06;;;0.82;100.00
42285;BME280;27942;47.510;18.966;2022-12-07T02:06:08;-15222.84;;;0.85;100.00
42285;BME280;27942;47.510;18.966;2022-12-07T02:08:34;-15220.84;;;0.78;100.00
42285;BME280;27942;47.510;18.966;2022-12-07T02:11:04;-15221.75;;;0.81;100.00
42285;BME280;27942;47.510;18.966;2022-12-07T02:13:33;-15225.94;;;0.95;100.00
42285;BME280;27942;47.510;18.966;2022-12-07T02:18:52;-15226.41;;;0.96;100.00
42285;BME280;27942;47.510;18.966;2022-12-07T02:30:10;-15230.13;;;1.09;100.00
42285;BME280;27942;47.510;18.966;2022-12-07T02:35:55;-15234.00;;;1.21;100.00
42285;BME280;27942;47.510;18.966;2022-12-07T02:38:25;-15234.47;;;1.23;100.00
42285;BME280;27942;47.510;18.966;2022-12-07T02:41:04;-15235.09;;;1.25;100.00
42285;BME280;27942;47.510;18.966;2022-12-07T02:43:35;-15235.41;;;1.26;100.00
42285;BME280;27942;47.510;18.966;2022-12-07T02:46:09;-15235.09;;;1.25;100.00
42285;BME280;27942;47.510;18.966;2022-12-07T02:48:38;-15236.78;;;1.31;100.00
42285;BME280;27942;47.510;18.966;2022-12-07T02:51:04;-15237.25;;;1.32;100.00
42285;BME280;27942;47.510;18.966;2022-12-07T02:53:34;-15237.56;;;1.33;100.00
42285;BME280;27942;47.510;18.966;2022-12-07T03:04:24;-15236.78;;;1.31;100.00
42285;BME280;27942;47.510;18.966;2022-12-07T03:10:33;-15235.56;;;1.26;100.00
42285;BME280;27942;47.510;18.966;2022-12-07T03:18:47;-15234.16;;;1.22;100.00
42285;BME280;27942;47.510;18.966;2022-12-07T03:21:18;-15235.09;;;1.25;100.00
42285;BME280;27942;47.510;18.966;2022-12-07T03:23:49;-15233.84;;;1.21;100.00
42285;BME280;27942;47.510;18.966;2022-12-07T03:26:17;-15234.63;;;1.23;100.00
42285;BME280;27942;47.510;18.966;2022-12-07T03:28:49;-15234.94;;;1.24;100.00
42285;BME280;27942;47.510;18.966;2022-12-07T03:31:22;-15236.34;;;1.29;100.00
42285;BME280;27942;47.510;18.966;2022-12-07T03:36:50;-15236.66;;;1.30;100.00
42285;BME280;27942;47.510;18.966;2022-12-07T03:41:50;-15235.25;;;1.25;100.00
42285;BME280;27942;47.510;18.966;2022-12-07T03:44:16;-15235.72;;;1.27;100.00
42285;BME280;27942;47.510;18.966;2022-12-07T03:46:44;-15232.31;;;1.16;100.00
42285;BME280;27942;47.510;18.966;2022-12-07T03:49:23;-15232.75;;;1.17;100.00
42285;BME280;27942;47.510;18.966;2022-12-07T03:54:40;-15236.34;;;1.29;100.00
42285;BME280;27942;47.510;18.966;2022-12-07T03:57:07;-15236.94;;;1.31;100.00
42285;BME280;27942;47.510;18.966;2022-12-07T03:59:34;-15235.09;;;1.25;100.00
42285;BME280;27942;47.510;18.966;2022-12-07T04:02:06;-15232.47;;;1.16;100.00
42285;BME280;27942;47.510;18.966;2022-12-07T04:04:32;-15233.38;;;1.19;100.00
42285;BME280;27942;47.510;18.966;2022-12-07T04:06:58;-15233.69;;;1.20;100.00
42285;BME280;27942;47.510;18.966;2022-12-07T04:09:24;-15233.53;;;1.20;100.00
42285;BME280;27942;47.510;18.966;2022-12-07T04:11:49;-15229.97;;;1.08;100.00
42285;BME280;27942;47.510;18.966;2022-12-07T04:14:15;-15229.50;;;1.07;100.00
42285;BME280;27942;47.510;18.966;2022-12-07T04:16:44;-15232.94;;;1.18;100.00
42285;BME280;27942;47.510;18.966;2022-12-07T04:19:09;-15232.16;;;1.15;100.00
42285;BME280;27942;47.510;18.966;2022-12-07T04:21:35;-15230.59;;;1.10;100.00
42285;BME280;27942;47.510;18.966;2022-12-07T04:24:00;-15234.63;;;1.23;100.00
42285;BME280;27942;47.510;18.966;2022-12-07T04:26:25;-15233.53;;;1.20;100.00
42285;BME280;27942;47.510;18.966;2022-12-07T04:28:51;-15236.50;;;1.30;100.00
42285;BME280;27942;47.510;18.966;2022-12-07T04:31:16;-15235.09;;;1.25;100.00
42285;BME280;27942;47.510;18.966;2022-12-07T04:33:41;-15235.56;;;1.26;100.00
42285;BME280;27942;47.510;18.966;2022-12-07T04:36:07;-15232.63;;;1.17;100.00
42285;BME280;27942;47.510;18.966;2022-12-07T04:38:32;-15233.22;;;1.19;100.00
42285;BME280;27942;47.510;18.966;2022-12-07T04:40:57;-15230.91;;;1.11;100.00
42285;BME280;27942;47.510;18.966;2022-12-07T04:43:23;-15232.63;;;1.17;100.00
42285;BME280;27942;47.510;18.966;2022-12-07T04:45:48;-15233.84;;;1.21;100.00
42285;BME280;27942;47.510;18.966;2022-12-07T04:48:14;-15233.09;;;1.18;100.00
42285;BME280;27942;47.510;18.966;2022-12-07T04:50:40;-15229.66;;;1.07;100.00
42285;BME280;27942;47.510;18.966;2022-12-07T04:53:05;-15227.81;;;1.01;100.00
42285;BME280;27942;47.510;18.966;2022-12-07T04:55:30;-15224.56;;;0.90;100.00
42285;BME280;27942;47.510;18.966;2022-12-07T04:57:56;-15225.00;;;0.92;100.00
42285;BME280;27942;47.510;18.966;2022-12-07T05:00:21;-15225.78;;;0.94;100.00
42285;BME280;27942;47.510;18.966;2022-12-07T05:02:46;-15220.38;;;0.76;100.00
42285;BME280;27942;47.510;18.966;2022-12-07T05:05:12;-15222.22;;;0.83;100.00
42285;BME280;27942;47.510;18.966;2022-12-07T05:07:37;-15223.31;;;0.86;100.00
42285;BME280;27942;47.510;18.966;2022-12-07T05:10:03;-15220.84;;;0.78;100.00
42285;BME280;27942;47.510;18.966;2022-12-07T05:12:28;-15223.16;;;0.86;100.00
42285;BME280;27942;47.510;18.966;2022-12-07T05:14:53;-15222.38;;;0.83;100.00
42285;BME280;27942;47.510;18.966;2022-12-07T05:17:19;-15221.28;;;0.80;100.00
42285;BME280;27942;47.510;18.966;2022-12-07T05:19:44;-15224.09;;;0.89;100.00
42285;BME280;27942;47.510;18.966;2022-12-07T05:22:09;-15225.16;;;0.92;100.00
42285;BME280;27942;47.510;18.966;2022-12-07T05:24:35;-15227.97;;;1.01;100.00
42285;BME280;27942;47.510;18.966;2022-12-07T05:27:00;-15227.66;;;1.00;100.00
42285;BME280;27942;47.510;18.966;2022-12-07T05:29:26;-15228.59;;;1.04;100.00
42285;BME280;27942;47.510;18.966;2022-12-07T05:31:51;-15229.19;;;1.06;100.00
42285;BME280;27942;47.510;18.966;2022-12-07T05:34:17;-15231.22;;;1.12;100.00
42285;BME280;27942;47.510;18.966;2022-12-07T05:36:42;-15232.94;;;1.18;100.00
42285;BME280;27942;47.510;18.966;2022-12-07T05:39:08;-15232.31;;;1.16;100.00
42285;BME280;27942;47.510;18.966;2022-12-07T05:41:33;-15231.69;;;1.14;100.00
42285;BME280;27942;47.510;18.966;2022-12-07T05:44:17;-15229.19;;;1.06;100.00
42285;BME280;27942;47.510;18.966;2022-12-07T05:46:43;-15228.44;;;1.03;100.00
42285;BME280;27942;47.510;18.966;2022-12-07T05:49:08;-15227.97;;;1.01;100.00
42285;BME280;27942;47.510;18.966;2022-12-07T05:51:33;-15228.28;;;1.02;100.00
42285;BME280;27942;47.510;18.966;2022-12-07T05:53:58;-15225.78;;;0.94;100.00
42285;BME280;27942;47.510;18.966;2022-12-07T05:56:24;-15228.44;;;1.03;100.00
42285;BME280;27942;47.510;18.966;2022-12-07T05:58:49;-15226.25;;;0.96;100.00
42285;BME280;27942;47.510;18.966;2022-12-07T06:01:33;-15225.78;;;0.94;100.00
42285;BME280;27942;47.510;18.966;2022-12-07T06:03:59;-15224.72;;;0.91;100.00
42285;BME280;27942;47.510;18.966;2022-12-07T06:06:24;-15225.47;;;0.93;100.00
42285;BME280;27942;47.510;18.966;2022-12-07T06:08:49;-15225.94;;;0.95;100.00
42285;BME280;27942;47.510;18.966;2022-12-07T06:11:15;-15225.31;;;0.93;100.00
42285;BME280;27942;47.510;18.966;2022-12-07T06:13:59;-15228.13;;;1.02;100.00
42285;BME280;27942;47.510;18.966;2022-12-07T06:16:24;-15228.59;;;1.04;100.00
42285;BME280;27942;47.510;18.966;2022-12-07T06:18:49;-15228.59;;;1.04;100.00
42285;BME280;27942;47.510;18.966;2022-12-07T06:21:14;-15225.78;;;0.94;100.00
42285;BME280;27942;47.510;18.966;2022-12-07T06:23:40;-15228.59;;;1.04;100.00
42285;BME280;27942;47.510;18.966;2022-12-07T06:26:05;-15230.13;;;1.09;100.00
42285;BME280;27942;47.510;18.966;2022-12-07T06:28:31;-15228.75;;;1.04;100.00
42285;BME280;27942;47.510;18.966;2022-12-07T06:31:00;-15229.19;;;1.06;100.00
42285;BME280;27942;47.510;18.966;2022-12-07T06:33:27;-15230.28;;;1.09;100.00
42285;BME280;27942;47.510;18.966;2022-12-07T06:35:52;-15230.75;;;1.11;100.00
42285;BME280;27942;47.510;18.966;2022-12-07T06:38:17;-15228.59;;;1.04;100.00
42285;BME280;27942;47.510;18.966;2022-12-07T06:40:43;-15231.53;;;1.13;100.00
42285;BME280;27942;47.510;18.966;2022-12-07T06:43:08;-15233.53;;;1.20;100.00
42285;BME280;27942;47.510;18.966;2022-12-07T06:45:33;-15234.63;;;1.23;100.00
42285;BME280;27942;47.510;18.966;2022-12-07T06:47:59;-15233.53;;;1.20;100.00
42285;BME280;27942;47.510;18.966;2022-12-07T06:50:24;-15237.09;;;1.32;100.00
42285;BME280;27942;47.510;18.966;2022-12-07T06:52:50;-15234.78;;;1.24;100.00
42285;BME280;27942;47.510;18.966;2022-12-07T06:55:16;-15237.56;;;1.33;100.00
42285;BME280;27942;47.510;18.966;2022-12-07T06:57:41;-15240.69;;;1.43;100.00
42285;BME280;27942;47.510;18.966;2022-12-07T07:00:07;-15238.66;;;1.37;100.00
42285;BME280;27942;47.510;18.966;2022-12-07T07:02:32;-15239.28;;;1.39;100.00
42285;BME280;27942;47.510;18.966;2022-12-07T07:04:58;-15239.13;;;1.38;100.00
42285;BME280;27942;47.510;18.966;2022-12-07T07:07:23;-15235.41;;;1.26;100.00
42285;BME280;27942;47.510;18.966;2022-12-07T07:09:48;-15236.34;;;1.29;100.00
42285;BME280;27942;47.510;18.966;2022-12-07T07:12:14;-15236.94;;;1.31;100.00
42285;BME280;27942;47.510;18.966;2022-12-07T07:14:39;-15236.66;;;1.30;100.00
42285;BME280;27942;47.510;18.966;2022-12-07T07:17:04;-15236.03;;;1.28;100.00
42285;BME280;27942;47.510;18.966;2022-12-07T07:19:30;-15236.03;;;1.28;100.00
42285;BME280;27942;47.510;18.966;2022-12-07T07:21:55;-15234.47;;;1.23;100.00
42285;BME280;27942;47.510;18.966;2022-12-07T07:24:20;-15236.19;;;1.28;100.00
42285;BME280;27942;47.510;18.966;2022-12-07T07:26:46;-15236.66;;;1.30;100.00
42285;BME280;27942;47.510;18.966;2022-12-07T07:29:11;-15236.50;;;1.30;100.00
42285;BME280;27942;47.510;18.966;2022-12-07T07:31:36;-15239.44;;;1.39;100.00
42285;BME280;27942;47.510;18.966;2022-12-07T07:34:02;-15238.81;;;1.37;100.00
42285;BME280;27942;47.510;18.966;2022-12-07T07:36:27;-15239.91;;;1.41;100.00
42285;BME280;27942;47.510;18.966;2022-12-07T07:38:53;-15241.59;;;1.46;100.00
42285;BME280;27942;47.510;18.966;2022-12-07T07:41:18;-15238.66;;;1.37;100.00
42285;BME280;27942;47.510;18.966;2022-12-07T07:43:43;-15240.22;;;1.42;100.00
42285;BME280;27942;47.510;18.966;2022-12-07T07:46:09;-15242.22;;;1.48;100.00
42285;BME280;27942;47.510;18.966;2022-12-07T07:48:34;-15242.22;;;1.48;100.00
42285;BME280;27942;47.510;18.966;2022-12-07T07:50:59;-15244.88;;;1.57;100.00
42285;BME280;27942;47.510;18.966;2022-12-07T07:53:25;-15243.16;;;1.51;100.00
42285;BME280;27942;47.510;18.966;2022-12-07T07:55:54;-15242.84;;;1.50;100.00
42285;BME280;27942;47.510;18.966;2022-12-07T07:58:20;-15246.56;;;1.63;100.00
42285;BME280;27942;47.510;18.966;2022-12-07T08:00:45;-15245.94;;;1.61;100.00
42285;BME280;27942;47.510;18.966;2022-12-07T08:03:11;-15247.50;;;1.66;100.00
42285;BME280;27942;47.510;18.966;2022-12-07T08:05:37;-15246.56;;;1.63;100.00
42285;BME280;27942;47.510;18.966;2022-12-07T08:08:03;-15249.19;;;1.71;100.00
42285;BME280;27942;47.510;18.966;2022-12-07T08:10:28;-15250.28;;;1.75;100.00
42285;BME280;27942;47.510;18.966;2022-12-07T08:12:54;-15251.38;;;1.78;100.00
42285;BME280;27942;47.510;18.966;2022-12-07T08:15:40;-15252.31;;;1.82;100.00
42285;BME280;27942;47.510;18.966;2022-12-07T08:18:06;-15249.03;;;1.71;100.00
42285;BME280;27942;47.510;18.966;2022-12-07T08:20:34;-15248.75;;;1.70;100.00
42285;BME280;27942;47.510;18.966;2022-12-07T08:23:00;-15249.34;;;1.72;100.00
42285;BME280;27942;47.510;18.966;2022-12-07T08:25:27;-15250.13;;;1.74;100.00
42285;BME280;27942;47.510;18.966;2022-12-07T08:27:53;-15250.91;;;1.77;100.00
42285;BME280;27942;47.510;18.966;2022-12-07T08:30:18;-15250.13;;;1.74;100.00
42285;BME280;27942;47.510;18.966;2022-12-07T08:32:44;-15249.81;;;1.73;100.00
42285;BME280;27942;47.510;18.966;2022-12-07T08:35:10;-15252.75;;;1.83;100.00
42285;BME280;27942;47.510;18.966;2022-12-07T08:37:36;-15252.31;;;1.82;100.00
42285;BME280;27942;47.510;18.966;2022-12-07T08:40:03;-15255.25;;;1.91;100.00
42285;BME280;27942;47.510;18.966;2022-12-07T08:42:28;-15253.69;;;1.86;100.00
42285;BME280;27942;47.510;18.966;2022-12-07T08:44:56;-15250.75;;;1.76;100.00
42285;BME280;27942;47.510;18.966;2022-12-07T08:47:23;-15255.25;;;1.91;100.00
42285;BME280;27942;47.510;18.966;2022-12-07T08:49:49;-15258.97;;;2.03;100.00
42285;BME280;27942;47.510;18.966;2022-12-07T08:52:17;-15259.44;;;2.05;100.00
42285;BME280;27942;47.510;18.966;2022-12-07T08:54:43;-15261.28;;;2.11;100.00
42285;BME280;27942;47.510;18.966;2022-12-07T08:57:09;-15263.63;;;2.19;100.00
42285;BME280;27942;47.510;18.966;2022-12-07T08:59:36;-15261.13;;;2.11;100.00
42285;BME280;27942;47.510;18.966;2022-12-07T09:02:03;-15267.50;;;2.32;100.00
42285;BME280;27942;47.510;18.966;2022-12-07T09:04:28;-15267.50;;;2.32;100.00
42285;BME280;27942;47.510;18.966;2022-12-07T09:06:54;-15269.81;;;2.39;100.00
42285;BME280;27942;47.510;18.966;2022-12-07T09:09:20;-15271.38;;;2.44;100.00
42285;BME280;27942;47.510;18.966;2022-12-07T09:11:45;-15272.94;;;2.49;100.00
42285;BME280;27942;47.510;18.966;2022-12-07T09:14:11;-15273.53;;;2.51;100.00
42285;BME280;27942;47.510;18.966;2022-12-07T09:16:37;-15272.75;;;2.49;100.00
42285;BME280;27942;47.510;18.966;2022-12-07T09:19:02;-15272.94;;;2.49;100.00
42285;BME280;27942;47.510;18.966;2022-12-07T09:21:28;-15276.34;;;2.61;100.00
42285;BME280;27942;47.510;18.966;2022-12-07T09:23:53;-15275.09;;;2.56;100.00
42285;BME280;27942;47.510;18.966;2022-12-07T09:26:19;-15274.78;;;2.55;100.00
42285;BME280;27942;47.510;18.966;2022-12-07T09:28:44;-15273.38;;;2.51;100.00
42285;BME280;27942;47.510;18.966;2022-12-07T09:31:09;-15272.63;;;2.48;100.00
42285;BME280;27942;47.510;18.966;2022-12-07T09:33:35;-15275.72;;;2.59;100.00
42285;BME280;27942;47.510;18.966;2022-12-07T09:36:00;-15280.06;;;2.73;100.00
42285;BME280;27942;47.510;18.966;2022-12-07T09:38:25;-15286.56;;;2.94;100.00
42285;BME280;27942;47.510;18.966;2022-12-07T09:40:52;-15292.94;;;3.15;100.00
42285;BME280;27942;47.510;18.966;2022-12-07T09:43:22;-15294.47;;;3.20;100.00
42285;BME280;27942;47.510;18.966;2022-12-07T09:45:54;-15294.47;;;3.20;100.00
42285;BME280;27942;47.510;18.966;2022-12-07T09:48:42;-15295.56;;;3.24;100.00
42285;BME280;27942;47.510;18.966;2022-12-07T09:53:44;-15300.06;;;3.39;100.00
42285;BME280;27942;47.510;18.966;2022-12-07T09:56:17;-15298.97;;;3.35;100.00
42285;BME280;27942;47.510;18.966;2022-12-07T09:58:43;-15297.28;;;3.29;100.00
42285;BME280;27942;47.510;18.966;2022-12-07T10:03:39;-15300.84;;;3.41;100.00
42285;BME280;27942;47.510;18.966;2022-12-07T10:06:06;-15304.72;;;3.54;100.00
42285;BME280;27942;47.510;18.966;2022-12-07T10:08:33;-15305.78;;;3.57;100.00
42285;BME280;27942;47.510;18.966;2022-12-07T10:11:01;-15308.28;;;3.66;100.00
42285;BME280;27942;47.510;18.966;2022-12-07T10:16:01;-15309.69;;;3.70;100.00
42285;BME280;27942;47.510;18.966;2022-12-07T10:18:30;-15308.59;;;3.67;100.00
42285;BME280;27942;47.510;18.966;2022-12-07T10:23:35;-15300.06;;;3.39;100.00
42285;BME280;27942;47.510;18.966;2022-12-07T10:26:20;-15303.94;;;3.51;100.00
42285;BME280;27942;47.510;18.966;2022-12-07T10:28:46;-15307.50;;;3.63;100.00
42285;BME280;27942;47.510;18.966;2022-12-07T10:31:17;-15306.25;;;3.59;100.00
42285;BME280;27942;47.510;18.966;2022-12-07T10:34:08;-15309.06;;;3.68;100.00
42285;BME280;27942;47.510;18.966;2022-12-07T10:36:38;-15307.81;;;3.64;100.00
42285;BME280;27942;47.510;18.966;2022-12-07T10:39:15;-15302.22;;;3.46;100.00
42285;BME280;27942;47.510;18.966;2022-12-07T10:44:23;-15308.28;;;3.66;100.00
42285;BME280;27942;47.510;18.966;2022-12-07T10:53:06;-15307.97;;;3.65;100.00
42285;BME280;27942;47.510;18.966;2022-12-07T10:55:54;-15307.97;;;3.65;100.00
42285;BME280;27942;47.510;18.966;2022-12-07T10:58:31;-15309.81;;;3.71;100.00
42285;BME280;27942;47.510;18.966;2022-12-07T11:03:54;-15306.09;;;3.58;100.00
42285;BME280;27942;47.510;18.966;2022-12-07T11:09:00;-15299.13;;;3.36;100.00
42285;BME280;27942;47.510;18.966;2022-12-07T11:11:36;-15301.44;;;3.43;100.00
42285;BME280;27942;47.510;18.966;2022-12-07T11:19:46;-15302.69;;;3.47;100.00
42285;BME280;27942;47.510;18.966;2022-12-07T11:22:48;-15303.47;;;3.50;100.00
42285;BME280;27942;47.510;18.966;2022-12-07T11:25:51;-15301.44;;;3.43;100.00
42285;BME280;27942;47.510;18.966;2022-12-07T11:37:03;-15297.13;;;3.29;100.00
42285;BME280;27942;47.510;18.966;2022-12-07T11:41:59;-15299.59;;;3.37;100.00
42285;BME280;27942;47.510;18.966;2022-12-07T11:47:18;-15294.47;;;3.20;100.00
42285;BME280;27942;47.510;18.966;2022-12-07T11:52:49;-15292.78;;;3.15;100.00
42285;BME280;27942;47.510;18.966;2022-12-07T11:58:19;-15295.09;;;3.22;100.00
42285;BME280;27942;47.510;18.966;2022-12-07T12:00:49;-15291.06;;;3.09;100.00
42285;BME280;27942;47.510;18.966;2022-12-07T12:03:28;-15296.19;;;3.26;100.00
42285;BME280;27942;47.510;18.966;2022-12-07T12:05:56;-15296.97;;;3.28;100.00
42285;BME280;27942;47.510;18.966;2022-12-07T12:08:36;-15289.66;;;3.04;100.00
42285;BME280;27942;47.510;18.966;2022-12-07T12:14:19;-15290.59;;;3.07;100.00
42285;BME280;27942;47.510;18.966;2022-12-07T12:22:41;-15293.69;;;3.18;100.00
42285;BME280;27942;47.510;18.966;2022-12-07T12:25:19;-15293.84;;;3.18;100.00
42285;BME280;27942;47.510;18.966;2022-12-07T12:27:47;-15294.31;;;3.20;100.00
42285;BME280;27942;47.510;18.966;2022-12-07T12:33:22;-15301.16;;;3.42;100.00
42285;BME280;27942;47.510;18.966;2022-12-07T12:49:33;-15307.97;;;3.65;100.00
42285;BME280;27942;47.510;18.966;2022-12-07T12:52:01;-15308.28;;;3.66;100.00
42285;BME280;27942;47.510;18.966;2022-12-07T12:57:35;-15304.56;;;3.53;100.00
42285;BME280;27942;47.510;18.966;2022-12-07T13:00:14;-15300.69;;;3.41;100.00
42285;BME280;27942;47.510;18.966;2022-12-07T13:02:54;-15304.09;;;3.52;100.00
42285;BME280;27942;47.510;18.966;2022-12-07T13:05:23;-15303.31;;;3.49;100.00
42285;BME280;27942;47.510;18.966;2022-12-07T13:08:22;-15303.63;;;3.50;100.00
42285;BME280;27942;47.510;18.966;2022-12-07T13:10:47;-15300.69;;;3.41;100.00
42285;BME280;27942;47.510;18.966;2022-12-07T13:15:43;-15302.22;;;3.46;100.00
42285;BME280;27942;47.510;18.966;2022-12-07T13:20:59;-15305.78;;;3.57;100.00
42285;BME280;27942;47.510;18.966;2022-12-07T13:23:35;-15302.06;;;3.45;100.00
42285;BME280;27942;47.510;18.966;2022-12-07T13:28:36;-15292.78;;;3.15;100.00
42285;BME280;27942;47.510;18.966;2022-12-07T13:31:31;-15291.84;;;3.12;100.00
42285;BME280;27942;47.510;18.966;2022-12-07T13:33:57;-15291.22;;;3.10;100.00
42285;BME280;27942;47.510;18.966;2022-12-07T13:36:44;-15290.44;;;3.07;100.00
42285;BME280;27942;47.510;18.966;2022-12-07T13:39:24;-15288.28;;;3.00;100.00
42285;BME280;27942;47.510;18.966;2022-12-07T13:41:52;-15284.09;;;2.86;100.00
42285;BME280;27942;47.510;18.966;2022-12-07T13:44:19;-15285.31;;;2.90;100.00
42285;BME280;27942;47.510;18.966;2022-12-07T13:49:31;-15280.53;;;2.74;100.00
42285;BME280;27942;47.510;18.966;2022-12-07T13:55:14;-15278.97;;;2.69;100.00
42285;BME280;27942;47.510;18.966;2022-12-07T13:57:40;-15279.59;;;2.71;100.00
42285;BME280;27942;47.510;18.966;2022-12-07T14:00:16;-15277.72;;;2.65;100.00
42285;BME280;27942;47.510;18.966;2022-12-07T14:05:38;-15276.94;;;2.63;100.00
42285;BME280;27942;47.510;18.966;2022-12-07T14:08:20;-15277.09;;;2.63;100.00
42285;BME280;27942;47.510;18.966;2022-12-07T14:15:52;-15274.47;;;2.54;100.00
42285;BME280;27942;47.510;18.966;2022-12-07T14:18:26;-15271.06;;;2.43;100.00
42285;BME280;27942;47.510;18.966;2022-12-07T14:21:06;-15265.47;;;2.25;100.00
42285;BME280;27942;47.510;18.966;2022-12-07T14:23:39;-15265.16;;;2.24;100.00
42285;BME280;27942;47.510;18.966;2022-12-07T14:26:12;-15265.47;;;2.25;100.00
42285;BME280;27942;47.510;18.966;2022-12-07T14:28:40;-15260.22;;;2.08;100.00
42285;BME280;27942;47.510;18.966;2022-12-07T14:31:31;-15258.34;;;2.01;100.00
42285;BME280;27942;47.510;18.966;2022-12-07T14:34:00;-15256.66;;;1.96;100.00
42285;BME280;27942;47.510;18.966;2022-12-07T14:36:25;-15251.84;;;1.80;100.00
42285;BME280;27942;47.510;18.966;2022-12-07T14:38:50;-15250.44;;;1.75;100.00
42285;BME280;27942;47.510;18.966;2022-12-07T14:41:21;-15245.00;;;1.58;100.00
42285;BME280;27942;47.510;18.966;2022-12-07T14:44:12;-15242.22;;;1.48;100.00
42285;BME280;27942;47.510;18.966;2022-12-07T14:46:37;-15242.06;;;1.48;100.00
42285;BME280;27942;47.510;18.966;2022-12-07T14:49:03;-15239.75;;;1.40;100.00
42285;BME280;27942;47.510;18.966;2022-12-07T14:51:28;-15234.31;;;1.22;100.00
42285;BME280;27942;47.510;18.966;2022-12-07T14:53:54;-15236.78;;;1.31;100.00
42285;BME280;27942;47.510;18.966;2022-12-07T14:56:19;-15233.09;;;1.18;100.00
42285;BME280;27942;47.510;18.966;2022-12-07T14:58:45;-15229.97;;;1.08;100.00
42285;BME280;27942;47.510;18.966;2022-12-07T15:01:13;-15229.81;;;1.08;100.00
42285;BME280;27942;47.510;18.966;2022-12-07T15:03:38;-15227.66;;;1.00;100.00
42285;BME280;27942;47.510;18.966;2022-12-07T15:06:05;-15225.94;;;0.95;100.00